Aérodrome :
LOGIN :

S'inscrire | Disclaimer

   EN    FR    IT 

 










Légende :    VFR   VFR Marginal   IFR   IFR Intensif   IFR Très Intensif
Visi : 
Plafond : 
>= 8 km
>= 3000ft
5 à 8 km
1000 à 3000 ft
1500m à 5 km
500 à 1000 ft
800 à 1500m
200 à 500 ft
< 800m
< 200 ft
Symboles :   Orages  Brouillard  Fortes neiges  Fortes précipitations  Vent > 20 kt
SIGMETs :   Divers  Orages  Givrage  Turbulence  Onde Orograph.  Cendres Volcan.






- Altitude de l'aérodrome : 32 ft
- Code IATA : LKZ


EGUL - RAF Lakenheath

DERNIER METAR :
  • 092056Z AUTO 24003KT 9999 CLR 01/M03 A3021 RMK AO2 SLP234 T00061026 52031 $

METARs EXPIRÉS :
  • 091956Z AUTO 00000KT 9999 CLR 01/M02 A3018 RMK AO2 SLP224 T00111023 $

TAF TAF EGUL
Valide du 09 à 21h jusqu'au 11 à 03h UTC


092100Z 0921/1103 30009KT 9999 FEW020 QNH3002INS
BECMG 1001/1002 20006KT 6000 BR SKC QNH3000INS
BECMG 1007/1008 18015G25KT 9999 NSW FEW020 SCT150 QNH2998INS
BECMG 1009/1010 20025G35KT 9999 BKN020 510003 QNH2965INS
BECMG 1015/1016 20030G45KT 8000 -SHRA OVC015 610805 520003 QNH2959INS
BECMG 1021/1022 26015G25KT 9000 -SHRA OVC015 610409 QNH2967INS
BECMG 1023/1024 26012KT 9999 NSW SCT020 QNH2972INS TX11/1017Z TN00/1001Z LAST NO AMDS AFT 0921 NEXT 1005



MET'MAP, la Météo Aéronautique d'un coup d'oeil ! - Copyright ORBIFLY Décembre 2007 - Disclaimer

ORBIFLY MET'MAP TEAM :

Programmation & Développement : Alexandra Zaïnal
Sur une idée originale de : Baudouin d'Aumeries
Assistance à la programmation : Marc-Olivier Méhu
Soutien technique & logistique : Manuel Goepfert

Contact : metmap@orbifly.com




SOURCES & CREDITS :

   NOAA